Terminal Aerodrome Forecast
Issued by NWS

Home | Current Version | Previous Version | Text Only | Print | Product List | Glossary On
Versions: 1 2 3 4 5 6 7 8 9 10 11 12
000
FTUS45 KRIW 060520
TAFCPR
TAF
KCPR 060520Z 0606/0706 24006KT P6SM SCT080 BKN150
     FM061500 03010KT P6SM VCSH SCT035 BKN070
     FM061900 04015G23KT P6SM VCTS SCT025CB BKN050
     FM070200 04012G20KT 4SM -RA SCT009 BKN013=

USA.gov is the U.S. government's official web portal to all federal, state and local government web resources and services.